sensor_id;sensor_type;location;lat;lon;timestamp;temperature;humidity
37408;DHT22;24866;50.248;8.252;2022-09-09T00:01:28;16.40;99.90
37408;DHT22;24866;50.248;8.252;2022-09-09T00:04:09;16.40;99.90
37408;DHT22;24866;50.248;8.252;2022-09-09T00:06:45;16.40;99.90
37408;DHT22;24866;50.248;8.252;2022-09-09T00:09:19;16.40;99.90
37408;DHT22;24866;50.248;8.252;2022-09-09T00:11:53;16.40;99.90
37408;DHT22;24866;50.248;8.252;2022-09-09T00:14:34;16.40;99.90
37408;DHT22;24866;50.248;8.252;2022-09-09T00:17:11;16.30;99.90
37408;DHT22;24866;50.248;8.252;2022-09-09T00:19:48;16.30;99.90
37408;DHT22;24866;50.248;8.252;2022-09-09T00:22:21;16.30;99.90
37408;DHT22;24866;50.248;8.252;2022-09-09T00:24:53;16.30;99.90
37408;DHT22;24866;50.248;8.252;2022-09-09T00:27:28;16.30;99.90
37408;DHT22;24866;50.248;8.252;2022-09-09T00:30:11;16.30;99.90
37408;DHT22;24866;50.248;8.252;2022-09-09T00:32:42;16.20;99.90
37408;DHT22;24866;50.248;8.252;2022-09-09T00:35:18;16.20;99.90
37408;DHT22;24866;50.248;8.252;2022-09-09T00:37:53;16.20;99.90
37408;DHT22;24866;50.248;8.252;2022-09-09T00:40:30;16.20;99.90
37408;DHT22;24866;50.248;8.252;2022-09-09T00:43:21;16.20;99.90
37408;DHT22;24866;50.248;8.252;2022-09-09T00:49:15;16.10;99.90
37408;DHT22;24866;50.248;8.252;2022-09-09T00:52:02;16.10;99.90
37408;DHT22;24866;50.248;8.252;2022-09-09T00:54:44;16.10;99.90
37408;DHT22;24866;50.248;8.252;2022-09-09T00:57:23;16.00;99.90
37408;DHT22;24866;50.248;8.252;2022-09-09T01:00:20;15.90;99.90
37408;DHT22;24866;50.248;8.252;2022-09-09T01:03:01;15.90;99.90
37408;DHT22;24866;50.248;8.252;2022-09-09T01:05:35;15.90;99.90
37408;DHT22;24866;50.248;8.252;2022-09-09T01:08:15;15.90;99.90
37408;DHT22;24866;50.248;8.252;2022-09-09T01:10:50;15.80;99.90
37408;DHT22;24866;50.248;8.252;2022-09-09T01:13:24;15.80;99.90
37408;DHT22;24866;50.248;8.252;2022-09-09T01:15:55;15.80;99.90
37408;DHT22;24866;50.248;8.252;2022-09-09T01:18:30;15.70;99.90
37408;DHT22;24866;50.248;8.252;2022-09-09T01:21:09;15.70;99.90
37408;DHT22;24866;50.248;8.252;2022-09-09T01:24:08;15.70;99.90
37408;DHT22;24866;50.248;8.252;2022-09-09T01:26:43;15.60;99.90
37408;DHT22;24866;50.248;8.252;2022-09-09T01:29:16;15.60;99.90
37408;DHT22;24866;50.248;8.252;2022-09-09T01:31:53;15.60;99.90
37408;DHT22;24866;50.248;8.252;2022-09-09T01:34:25;15.60;99.90
37408;DHT22;24866;50.248;8.252;2022-09-09T01:36:59;15.60;99.90
37408;DHT22;24866;50.248;8.252;2022-09-09T01:39:33;15.50;99.90
37408;DHT22;24866;50.248;8.252;2022-09-09T01:42:08;15.50;99.90
37408;DHT22;24866;50.248;8.252;2022-09-09T01:44:38;15.50;99.90
37408;DHT22;24866;50.248;8.252;2022-09-09T01:47:08;15.50;99.90
37408;DHT22;24866;50.248;8.252;2022-09-09T01:49:39;15.50;99.90
37408;DHT22;24866;50.248;8.252;2022-09-09T01:52:08;15.50;99.90
37408;DHT22;24866;50.248;8.252;2022-09-09T01:54:39;15.40;99.90
37408;DHT22;24866;50.248;8.252;2022-09-09T01:57:17;15.40;99.90
37408;DHT22;24866;50.248;8.252;2022-09-09T02:00:01;15.40;99.90
37408;DHT22;24866;50.248;8.252;2022-09-09T02:02:32;15.40;99.90
37408;DHT22;24866;50.248;8.252;2022-09-09T02:05:16;15.40;99.90
37408;DHT22;24866;50.248;8.252;2022-09-09T02:07:48;15.40;99.90
37408;DHT22;24866;50.248;8.252;2022-09-09T02:10:21;15.40;99.90
37408;DHT22;24866;50.248;8.252;2022-09-09T02:12:58;15.40;99.90
37408;DHT22;24866;50.248;8.252;2022-09-09T02:15:34;15.40;99.90
37408;DHT22;24866;50.248;8.252;2022-09-09T02:18:07;15.50;99.90
37408;DHT22;24866;50.248;8.252;2022-09-09T02:20:39;15.40;99.90
37408;DHT22;24866;50.248;8.252;2022-09-09T02:23:09;15.40;99.90
37408;DHT22;24866;50.248;8.252;2022-09-09T02:25:41;15.40;99.90
37408;DHT22;24866;50.248;8.252;2022-09-09T02:28:14;15.30;99.90
37408;DHT22;24866;50.248;8.252;2022-09-09T02:30:46;15.40;99.90
37408;DHT22;24866;50.248;8.252;2022-09-09T02:33:26;15.40;99.90
37408;DHT22;24866;50.248;8.252;2022-09-09T02:35:56;15.50;99.90
37408;DHT22;24866;50.248;8.252;2022-09-09T02:38:36;15.50;99.90
37408;DHT22;24866;50.248;8.252;2022-09-09T02:41:08;15.40;99.90
37408;DHT22;24866;50.248;8.252;2022-09-09T02:43:40;15.30;99.90
37408;DHT22;24866;50.248;8.252;2022-09-09T02:46:23;15.30;99.90
37408;DHT22;24866;50.248;8.252;2022-09-09T02:48:59;15.30;99.90
37408;DHT22;24866;50.248;8.252;2022-09-09T02:51:35;15.30;99.90
37408;DHT22;24866;50.248;8.252;2022-09-09T02:54:14;15.40;99.90
37408;DHT22;24866;50.248;8.252;2022-09-09T02:56:51;15.40;99.90
37408;DHT22;24866;50.248;8.252;2022-09-09T02:59:24;15.40;99.90
37408;DHT22;24866;50.248;8.252;2022-09-09T03:01:54;15.40;99.90
37408;DHT22;24866;50.248;8.252;2022-09-09T03:04:24;15.30;99.90
37408;DHT22;24866;50.248;8.252;2022-09-09T03:06:54;15.30;99.90
37408;DHT22;24866;50.248;8.252;2022-09-09T03:09:24;15.30;99.90
37408;DHT22;24866;50.248;8.252;2022-09-09T03:11:54;15.30;99.90
37408;DHT22;24866;50.248;8.252;2022-09-09T03:14:25;15.30;99.90
37408;DHT22;24866;50.248;8.252;2022-09-09T03:16:56;15.40;99.90
37408;DHT22;24866;50.248;8.252;2022-09-09T03:19:26;15.40;99.90
37408;DHT22;24866;50.248;8.252;2022-09-09T03:21:58;15.40;99.90
37408;DHT22;24866;50.248;8.252;2022-09-09T03:24:28;15.40;99.90
37408;DHT22;24866;50.248;8.252;2022-09-09T03:26:58;15.40;99.90
37408;DHT22;24866;50.248;8.252;2022-09-09T03:29:29;15.40;99.90
37408;DHT22;24866;50.248;8.252;2022-09-09T03:31:59;15.40;99.90
37408;DHT22;24866;50.248;8.252;2022-09-09T03:34:29;15.40;99.90
37408;DHT22;24866;50.248;8.252;2022-09-09T03:36:59;15.30;99.90
37408;DHT22;24866;50.248;8.252;2022-09-09T03:39:29;15.40;99.90
37408;DHT22;24866;50.248;8.252;2022-09-09T03:41:59;15.40;99.90
37408;DHT22;24866;50.248;8.252;2022-09-09T03:44:33;15.50;99.90
37408;DHT22;24866;50.248;8.252;2022-09-09T03:47:03;15.40;99.90
37408;DHT22;24866;50.248;8.252;2022-09-09T03:49:34;15.50;99.90
37408;DHT22;24866;50.248;8.252;2022-09-09T03:52:04;15.50;99.90
37408;DHT22;24866;50.248;8.252;2022-09-09T03:54:34;15.50;99.90
37408;DHT22;24866;50.248;8.252;2022-09-09T03:57:04;15.50;99.90
37408;DHT22;24866;50.248;8.252;2022-09-09T03:59:36;15.50;99.90
37408;DHT22;24866;50.248;8.252;2022-09-09T04:02:06;15.50;99.90
37408;DHT22;24866;50.248;8.252;2022-09-09T04:04:37;15.50;99.90
37408;DHT22;24866;50.248;8.252;2022-09-09T04:07:08;15.50;99.90
37408;DHT22;24866;50.248;8.252;2022-09-09T04:09:38;15.60;99.90
37408;DHT22;24866;50.248;8.252;2022-09-09T04:12:08;15.60;99.90
37408;DHT22;24866;50.248;8.252;2022-09-09T04:14:41;15.60;99.90
37408;DHT22;24866;50.248;8.252;2022-09-09T04:17:11;15.60;99.90
37408;DHT22;24866;50.248;8.252;2022-09-09T04:19:41;15.60;99.90
37408;DHT22;24866;50.248;8.252;2022-09-09T04:22:11;15.60;99.90
37408;DHT22;24866;50.248;8.252;2022-09-09T04:24:41;15.70;99.90
37408;DHT22;24866;50.248;8.252;2022-09-09T04:27:11;15.60;99.90
37408;DHT22;24866;50.248;8.252;2022-09-09T04:29:42;15.60;99.90
37408;DHT22;24866;50.248;8.252;2022-09-09T04:32:12;15.60;99.90
37408;DHT22;24866;50.248;8.252;2022-09-09T04:34:42;15.60;99.90
37408;DHT22;24866;50.248;8.252;2022-09-09T04:37:13;15.70;99.90
37408;DHT22;24866;50.248;8.252;2022-09-09T04:39:43;15.70;99.90
37408;DHT22;24866;50.248;8.252;2022-09-09T04:42:13;15.80;99.90
37408;DHT22;24866;50.248;8.252;2022-09-09T04:44:46;15.70;99.90
37408;DHT22;24866;50.248;8.252;2022-09-09T04:47:16;15.70;99.90
37408;DHT22;24866;50.248;8.252;2022-09-09T04:49:46;15.70;99.90
37408;DHT22;24866;50.248;8.252;2022-09-09T04:52:16;15.70;99.90
37408;DHT22;24866;50.248;8.252;2022-09-09T04:54:45;15.70;99.90
37408;DHT22;24866;50.248;8.252;2022-09-09T04:57:16;15.60;99.90
37408;DHT22;24866;50.248;8.252;2022-09-09T04:59:47;15.70;99.90
37408;DHT22;24866;50.248;8.252;2022-09-09T05:02:17;15.60;99.90
37408;DHT22;24866;50.248;8.252;2022-09-09T05:04:47;15.60;99.90
37408;DHT22;24866;50.248;8.252;2022-09-09T05:07:18;15.70;99.90
37408;DHT22;24866;50.248;8.252;2022-09-09T05:09:48;15.70;99.90
37408;DHT22;24866;50.248;8.252;2022-09-09T05:12:18;15.70;99.90
37408;DHT22;24866;50.248;8.252;2022-09-09T05:14:49;15.70;99.90
37408;DHT22;24866;50.248;8.252;2022-09-09T05:17:19;15.70;99.90
37408;DHT22;24866;50.248;8.252;2022-09-09T05:19:49;15.70;99.90
37408;DHT22;24866;50.248;8.252;2022-09-09T05:22:19;15.60;99.90
37408;DHT22;24866;50.248;8.252;2022-09-09T05:24:49;15.80;99.90
37408;DHT22;24866;50.248;8.252;2022-09-09T05:27:19;15.70;99.90
37408;DHT22;24866;50.248;8.252;2022-09-09T05:29:51;15.80;99.90
37408;DHT22;24866;50.248;8.252;2022-09-09T05:32:21;15.80;99.90
37408;DHT22;24866;50.248;8.252;2022-09-09T05:34:51;15.80;99.90
37408;DHT22;24866;50.248;8.252;2022-09-09T05:37:21;15.90;99.90
37408;DHT22;24866;50.248;8.252;2022-09-09T05:39:52;15.80;99.90
37408;DHT22;24866;50.248;8.252;2022-09-09T05:42:22;15.80;99.90
37408;DHT22;24866;50.248;8.252;2022-09-09T05:44:53;15.90;99.90
37408;DHT22;24866;50.248;8.252;2022-09-09T05:47:23;15.90;99.90
37408;DHT22;24866;50.248;8.252;2022-09-09T05:49:56;15.90;99.90
37408;DHT22;24866;50.248;8.252;2022-09-09T05:52:25;15.90;99.90
37408;DHT22;24866;50.248;8.252;2022-09-09T05:54:55;15.90;99.90
37408;DHT22;24866;50.248;8.252;2022-09-09T05:57:25;16.00;99.90
37408;DHT22;24866;50.248;8.252;2022-09-09T05:59:56;16.00;99.90
37408;DHT22;24866;50.248;8.252;2022-09-09T06:02:26;16.00;99.90
37408;DHT22;24866;50.248;8.252;2022-09-09T06:04:56;16.00;99.90
37408;DHT22;24866;50.248;8.252;2022-09-09T06:07:26;16.10;99.90
37408;DHT22;24866;50.248;8.252;2022-09-09T06:09:56;16.10;99.90
37408;DHT22;24866;50.248;8.252;2022-09-09T06:12:27;16.10;99.90
37408;DHT22;24866;50.248;8.252;2022-09-09T06:14:58;16.10;99.90
37408;DHT22;24866;50.248;8.252;2022-09-09T06:17:28;16.20;99.90
37408;DHT22;24866;50.248;8.252;2022-09-09T06:19:58;16.20;99.90
37408;DHT22;24866;50.248;8.252;2022-09-09T06:22:28;16.20;99.90
37408;DHT22;24866;50.248;8.252;2022-09-09T06:24:58;16.20;99.90
37408;DHT22;24866;50.248;8.252;2022-09-09T06:27:29;16.20;99.90
37408;DHT22;24866;50.248;8.252;2022-09-09T06:30:01;16.30;99.90
37408;DHT22;24866;50.248;8.252;2022-09-09T06:32:31;16.40;99.90
37408;DHT22;24866;50.248;8.252;2022-09-09T06:35:04;16.40;99.90
37408;DHT22;24866;50.248;8.252;2022-09-09T06:37:34;16.40;99.90
37408;DHT22;24866;50.248;8.252;2022-09-09T06:40:06;16.40;99.90
37408;DHT22;24866;50.248;8.252;2022-09-09T06:42:36;16.40;99.90
37408;DHT22;24866;50.248;8.252;2022-09-09T06:45:09;16.40;99.90
37408;DHT22;24866;50.248;8.252;2022-09-09T06:47:39;16.40;99.90
37408;DHT22;24866;50.248;8.252;2022-09-09T06:50:09;16.40;99.90
37408;DHT22;24866;50.248;8.252;2022-09-09T06:52:39;16.40;99.90
37408;DHT22;24866;50.248;8.252;2022-09-09T06:55:09;16.40;99.90
37408;DHT22;24866;50.248;8.252;2022-09-09T06:57:39;16.40;99.90
37408;DHT22;24866;50.248;8.252;2022-09-09T07:00:12;16.50;99.90
37408;DHT22;24866;50.248;8.252;2022-09-09T07:02:42;16.50;99.90
37408;DHT22;24866;50.248;8.252;2022-09-09T07:05:13;16.60;99.90
37408;DHT22;24866;50.248;8.252;2022-09-09T07:07:43;16.60;99.90
37408;DHT22;24866;50.248;8.252;2022-09-09T07:10:13;16.50;99.90
37408;DHT22;24866;50.248;8.252;2022-09-09T07:12:43;16.70;99.90
37408;DHT22;24866;50.248;8.252;2022-09-09T07:15:15;16.60;99.90
37408;DHT22;24866;50.248;8.252;2022-09-09T07:17:45;16.60;99.90
37408;DHT22;24866;50.248;8.252;2022-09-09T07:20:15;16.70;99.90
37408;DHT22;24866;50.248;8.252;2022-09-09T07:22:45;16.60;99.90
37408;DHT22;24866;50.248;8.252;2022-09-09T07:25:15;16.60;99.90
37408;DHT22;24866;50.248;8.252;2022-09-09T07:27:46;16.60;99.90
37408;DHT22;24866;50.248;8.252;2022-09-09T07:30:18;16.60;99.90
37408;DHT22;24866;50.248;8.252;2022-09-09T07:32:50;16.70;99.90
37408;DHT22;24866;50.248;8.252;2022-09-09T07:35:20;16.60;99.90
37408;DHT22;24866;50.248;8.252;2022-09-09T07:37:50;16.60;99.90
37408;DHT22;24866;50.248;8.252;2022-09-09T07:40:20;16.70;99.90
37408;DHT22;24866;50.248;8.252;2022-09-09T07:42:50;17.00;99.90
37408;DHT22;24866;50.248;8.252;2022-09-09T07:45:22;17.30;99.90
37408;DHT22;24866;50.248;8.252;2022-09-09T07:47:52;17.40;99.90
37408;DHT22;24866;50.248;8.252;2022-09-09T07:50:22;17.40;99.90
37408;DHT22;24866;50.248;8.252;2022-09-09T07:52:52;17.40;99.90
37408;DHT22;24866;50.248;8.252;2022-09-09T07:55:22;17.40;99.90
37408;DHT22;24866;50.248;8.252;2022-09-09T07:57:54;17.40;99.90
37408;DHT22;24866;50.248;8.252;2022-09-09T08:00:26;17.70;99.90
37408;DHT22;24866;50.248;8.252;2022-09-09T08:02:57;17.40;99.90
37408;DHT22;24866;50.248;8.252;2022-09-09T08:05:26;17.50;99.90
37408;DHT22;24866;50.248;8.252;2022-09-09T08:07:56;17.50;99.90
37408;DHT22;24866;50.248;8.252;2022-09-09T08:10:26;17.60;99.90
37408;DHT22;24866;50.248;8.252;2022-09-09T08:12:56;17.40;99.90
37408;DHT22;24866;50.248;8.252;2022-09-09T08:15:28;17.30;99.90
37408;DHT22;24866;50.248;8.252;2022-09-09T08:17:58;17.20;99.90
37408;DHT22;24866;50.248;8.252;2022-09-09T08:20:28;17.10;99.90
37408;DHT22;24866;50.248;8.252;2022-09-09T08:22:58;17.10;99.90
37408;DHT22;24866;50.248;8.252;2022-09-09T08:25:28;17.30;99.90
37408;DHT22;24866;50.248;8.252;2022-09-09T08:27:58;17.30;99.90
37408;DHT22;24866;50.248;8.252;2022-09-09T08:30:29;17.30;99.90
37408;DHT22;24866;50.248;8.252;2022-09-09T08:32:59;17.20;99.90
37408;DHT22;24866;50.248;8.252;2022-09-09T08:35:29;17.30;99.90
37408;DHT22;24866;50.248;8.252;2022-09-09T08:38:01;17.30;99.90
37408;DHT22;24866;50.248;8.252;2022-09-09T08:40:34;17.30;99.90
37408;DHT22;24866;50.248;8.252;2022-09-09T08:43:08;17.30;99.90
37408;DHT22;24866;50.248;8.252;2022-09-09T08:45:48;17.30;99.90
37408;DHT22;24866;50.248;8.252;2022-09-09T08:48:32;17.30;99.90
37408;DHT22;24866;50.248;8.252;2022-09-09T08:51:10;17.30;99.90
37408;DHT22;24866;50.248;8.252;2022-09-09T08:53:43;17.40;99.90
37408;DHT22;24866;50.248;8.252;2022-09-09T08:56:18;17.50;99.90
37408;DHT22;24866;50.248;8.252;2022-09-09T08:58:49;17.40;99.90
37408;DHT22;24866;50.248;8.252;2022-09-09T09:01:36;17.40;99.90
37408;DHT22;24866;50.248;8.252;2022-09-09T09:04:26;17.50;99.90
37408;DHT22;24866;50.248;8.252;2022-09-09T09:07:04;17.50;99.90
37408;DHT22;24866;50.248;8.252;2022-09-09T09:09:48;17.60;99.90
37408;DHT22;24866;50.248;8.252;2022-09-09T09:12:23;17.60;99.90
37408;DHT22;24866;50.248;8.252;2022-09-09T09:14:54;17.80;99.90
37408;DHT22;24866;50.248;8.252;2022-09-09T09:17:28;17.80;99.90
37408;DHT22;24866;50.248;8.252;2022-09-09T09:20:05;17.80;99.90
37408;DHT22;24866;50.248;8.252;2022-09-09T09:22:43;17.70;99.90
37408;DHT22;24866;50.248;8.252;2022-09-09T09:25:17;17.80;99.90
37408;DHT22;24866;50.248;8.252;2022-09-09T09:27:58;18.10;99.90
37408;DHT22;24866;50.248;8.252;2022-09-09T09:30:32;18.50;99.90
37408;DHT22;24866;50.248;8.252;2022-09-09T09:33:13;18.70;99.90
37408;DHT22;24866;50.248;8.252;2022-09-09T09:35:44;18.30;99.90
37408;DHT22;24866;50.248;8.252;2022-09-09T09:38:17;18.40;99.90
37408;DHT22;24866;50.248;8.252;2022-09-09T09:40:49;18.20;99.90
37408;DHT22;24866;50.248;8.252;2022-09-09T09:43:23;18.20;99.90
37408;DHT22;24866;50.248;8.252;2022-09-09T09:45:54;18.10;99.90
37408;DHT22;24866;50.248;8.252;2022-09-09T09:48:27;18.00;99.90
37408;DHT22;24866;50.248;8.252;2022-09-09T09:51:05;18.30;99.90
37408;DHT22;24866;50.248;8.252;2022-09-09T09:53:38;18.80;99.90
37408;DHT22;24866;50.248;8.252;2022-09-09T09:56:10;19.20;99.90
37408;DHT22;24866;50.248;8.252;2022-09-09T09:58:49;19.50;99.90
37408;DHT22;24866;50.248;8.252;2022-09-09T10:01:22;19.60;99.90
37408;DHT22;24866;50.248;8.252;2022-09-09T10:03:59;19.60;99.90
37408;DHT22;24866;50.248;8.252;2022-09-09T10:06:30;19.60;99.90
37408;DHT22;24866;50.248;8.252;2022-09-09T10:09:02;19.50;99.90
37408;DHT22;24866;50.248;8.252;2022-09-09T10:11:41;19.80;99.90
37408;DHT22;24866;50.248;8.252;2022-09-09T10:14:18;19.80;99.90
37408;DHT22;24866;50.248;8.252;2022-09-09T10:17:00;19.60;99.90
37408;DHT22;24866;50.248;8.252;2022-09-09T10:19:36;19.70;99.90
37408;DHT22;24866;50.248;8.252;2022-09-09T10:22:21;19.50;99.90
37408;DHT22;24866;50.248;8.252;2022-09-09T10:25:24;19.30;99.90
37408;DHT22;24866;50.248;8.252;2022-09-09T10:28:26;19.20;99.90
37408;DHT22;24866;50.248;8.252;2022-09-09T10:31:08;19.00;99.90
37408;DHT22;24866;50.248;8.252;2022-09-09T10:33:47;19.20;99.90
37408;DHT22;24866;50.248;8.252;2022-09-09T10:36:22;19.20;99.90
37408;DHT22;24866;50.248;8.252;2022-09-09T10:38:57;19.40;99.90
37408;DHT22;24866;50.248;8.252;2022-09-09T10:41:38;19.70;99.90
37408;DHT22;24866;50.248;8.252;2022-09-09T10:44:18;19.50;99.90
37408;DHT22;24866;50.248;8.252;2022-09-09T10:47:12;19.90;99.90
37408;DHT22;24866;50.248;8.252;2022-09-09T10:50:04;19.50;99.90
37408;DHT22;24866;50.248;8.252;2022-09-09T10:52:47;19.50;99.90
37408;DHT22;24866;50.248;8.252;2022-09-09T10:55:25;19.70;99.90
37408;DHT22;24866;50.248;8.252;2022-09-09T10:57:58;19.90;99.90
37408;DHT22;24866;50.248;8.252;2022-09-09T11:00:37;20.00;99.90
37408;DHT22;24866;50.248;8.252;2022-09-09T11:03:15;20.40;99.90
37408;DHT22;24866;50.248;8.252;2022-09-09T11:05:51;20.50;1.00
37408;DHT22;24866;50.248;8.252;2022-09-09T11:08:26;20.70;1.00
37408;DHT22;24866;50.248;8.252;2022-09-09T11:11:00;21.30;99.90
37408;DHT22;24866;50.248;8.252;2022-09-09T11:13:37;21.50;23.70
37408;DHT22;24866;50.248;8.252;2022-09-09T11:16:18;21.00;99.90
37408;DHT22;24866;50.248;8.252;2022-09-09T11:18:55;20.50;99.90
37408;DHT22;24866;50.248;8.252;2022-09-09T11:21:29;20.20;1.00
37408;DHT22;24866;50.248;8.252;2022-09-09T11:24:06;20.40;99.90
37408;DHT22;24866;50.248;8.252;2022-09-09T11:26:43;20.30;99.90
37408;DHT22;24866;50.248;8.252;2022-09-09T11:29:32;20.10;91.90
37408;DHT22;24866;50.248;8.252;2022-09-09T11:32:21;20.00;1.00
37408;DHT22;24866;50.248;8.252;2022-09-09T11:35:06;20.00;1.00
37408;DHT22;24866;50.248;8.252;2022-09-09T11:37:54;19.90;1.00
37408;DHT22;24866;50.248;8.252;2022-09-09T11:40:31;19.90;99.90
37408;DHT22;24866;50.248;8.252;2022-09-09T11:43:02;19.80;99.90
37408;DHT22;24866;50.248;8.252;2022-09-09T11:45:34;19.80;1.00
37408;DHT22;24866;50.248;8.252;2022-09-09T11:48:05;19.70;1.00
37408;DHT22;24866;50.248;8.252;2022-09-09T11:51:00;19.90;99.90
37408;DHT22;24866;50.248;8.252;2022-09-09T11:53:31;19.60;1.00
37408;DHT22;24866;50.248;8.252;2022-09-09T11:56:06;19.70;1.00
37408;DHT22;24866;50.248;8.252;2022-09-09T11:58:39;19.70;1.00
37408;DHT22;24866;50.248;8.252;2022-09-09T12:04:10;20.10;1.00
37408;DHT22;24866;50.248;8.252;2022-09-09T12:06:44;20.10;1.00
37408;DHT22;24866;50.248;8.252;2022-09-09T12:09:19;19.80;1.00
37408;DHT22;24866;50.248;8.252;2022-09-09T12:12:05;19.90;1.00
37408;DHT22;24866;50.248;8.252;2022-09-09T12:14:36;19.70;99.90
37408;DHT22;24866;50.248;8.252;2022-09-09T12:17:17;19.70;99.90
37408;DHT22;24866;50.248;8.252;2022-09-09T12:20:00;20.20;1.00
37408;DHT22;24866;50.248;8.252;2022-09-09T12:22:38;20.20;1.00
37408;DHT22;24866;50.248;8.252;2022-09-09T12:25:20;20.50;1.00
37408;DHT22;24866;50.248;8.252;2022-09-09T12:27:58;20.60;1.00
37408;DHT22;24866;50.248;8.252;2022-09-09T12:30:34;20.60;1.00
37408;DHT22;24866;50.248;8.252;2022-09-09T12:33:11;20.60;1.00
37408;DHT22;24866;50.248;8.252;2022-09-09T12:35:44;20.80;99.90
37408;DHT22;24866;50.248;8.252;2022-09-09T12:38:17;20.60;1.00
37408;DHT22;24866;50.248;8.252;2022-09-09T12:40:54;20.80;99.90
37408;DHT22;24866;50.248;8.252;2022-09-09T12:43:28;20.90;1.00
37408;DHT22;24866;50.248;8.252;2022-09-09T12:46:00;20.90;1.00
37408;DHT22;24866;50.248;8.252;2022-09-09T12:48:35;21.50;1.00
37408;DHT22;24866;50.248;8.252;2022-09-09T12:51:17;20.60;1.00
37408;DHT22;24866;50.248;8.252;2022-09-09T12:53:48;20.80;99.90
37408;DHT22;24866;50.248;8.252;2022-09-09T12:56:20;20.90;99.90
37408;DHT22;24866;50.248;8.252;2022-09-09T12:58:54;21.30;99.90
37408;DHT22;24866;50.248;8.252;2022-09-09T13:01:26;21.60;1.00
37408;DHT22;24866;50.248;8.252;2022-09-09T13:03:57;21.30;1.00
37408;DHT22;24866;50.248;8.252;2022-09-09T13:06:29;21.10;64.90
37408;DHT22;24866;50.248;8.252;2022-09-09T13:09:01;21.10;1.00
37408;DHT22;24866;50.248;8.252;2022-09-09T13:11:36;20.90;1.00
37408;DHT22;24866;50.248;8.252;2022-09-09T13:14:15;20.60;1.00
37408;DHT22;24866;50.248;8.252;2022-09-09T13:16:56;20.40;1.00
37408;DHT22;24866;50.248;8.252;2022-09-09T13:19:29;20.30;99.90
37408;DHT22;24866;50.248;8.252;2022-09-09T13:22:12;20.40;1.00
37408;DHT22;24866;50.248;8.252;2022-09-09T13:24:42;20.60;1.00
37408;DHT22;24866;50.248;8.252;2022-09-09T13:27:26;20.40;1.00
37408;DHT22;24866;50.248;8.252;2022-09-09T13:29:59;20.30;45.30
37408;DHT22;24866;50.248;8.252;2022-09-09T13:32:29;20.60;1.00
37408;DHT22;24866;50.248;8.252;2022-09-09T13:35:01;20.60;99.90
37408;DHT22;24866;50.248;8.252;2022-09-09T13:37:34;20.70;99.90
37408;DHT22;24866;50.248;8.252;2022-09-09T13:40:06;20.70;99.90
37408;DHT22;24866;50.248;8.252;2022-09-09T13:42:40;20.30;99.90
37408;DHT22;24866;50.248;8.252;2022-09-09T13:45:18;20.00;1.00
37408;DHT22;24866;50.248;8.252;2022-09-09T13:47:50;20.00;1.00
37408;DHT22;24866;50.248;8.252;2022-09-09T13:50:26;20.20;99.90
37408;DHT22;24866;50.248;8.252;2022-09-09T13:52:57;19.90;99.90
37408;DHT22;24866;50.248;8.252;2022-09-09T13:55:28;20.00;99.90
37408;DHT22;24866;50.248;8.252;2022-09-09T13:58:00;19.90;93.60
37408;DHT22;24866;50.248;8.252;2022-09-09T14:00:33;19.60;1.00
37408;DHT22;24866;50.248;8.252;2022-09-09T14:03:03;19.50;99.90
37408;DHT22;24866;50.248;8.252;2022-09-09T14:05:33;19.50;1.00
37408;DHT22;24866;50.248;8.252;2022-09-09T14:08:04;19.40;99.90
37408;DHT22;24866;50.248;8.252;2022-09-09T14:10:34;19.30;1.00
37408;DHT22;24866;50.248;8.252;2022-09-09T14:13:05;19.30;1.00
37408;DHT22;24866;50.248;8.252;2022-09-09T14:15:38;19.20;99.90
37408;DHT22;24866;50.248;8.252;2022-09-09T14:18:11;19.20;99.90
37408;DHT22;24866;50.248;8.252;2022-09-09T14:20:41;19.20;99.90
37408;DHT22;24866;50.248;8.252;2022-09-09T14:23:12;19.00;99.90
37408;DHT22;24866;50.248;8.252;2022-09-09T14:25:43;18.80;99.90
37408;DHT22;24866;50.248;8.252;2022-09-09T14:28:13;18.60;99.90
37408;DHT22;24866;50.248;8.252;2022-09-09T14:30:45;18.60;99.90
37408;DHT22;24866;50.248;8.252;2022-09-09T14:33:15;18.50;99.90
37408;DHT22;24866;50.248;8.252;2022-09-09T14:35:45;18.20;99.90
37408;DHT22;24866;50.248;8.252;2022-09-09T14:38:15;18.10;99.90
37408;DHT22;24866;50.248;8.252;2022-09-09T14:40:46;18.30;99.90
37408;DHT22;24866;50.248;8.252;2022-09-09T14:43:16;18.20;99.90
37408;DHT22;24866;50.248;8.252;2022-09-09T14:45:47;18.10;99.90
37408;DHT22;24866;50.248;8.252;2022-09-09T14:48:19;18.00;99.90
37408;DHT22;24866;50.248;8.252;2022-09-09T14:50:49;17.90;99.90
37408;DHT22;24866;50.248;8.252;2022-09-09T14:53:19;18.00;99.90
37408;DHT22;24866;50.248;8.252;2022-09-09T14:55:50;18.10;99.90
37408;DHT22;24866;50.248;8.252;2022-09-09T14:58:20;18.40;99.90
37408;DHT22;24866;50.248;8.252;2022-09-09T15:00:51;18.60;99.90
37408;DHT22;24866;50.248;8.252;2022-09-09T15:03:21;19.00;99.90
37408;DHT22;24866;50.248;8.252;2022-09-09T15:05:51;18.90;99.90
37408;DHT22;24866;50.248;8.252;2022-09-09T15:08:21;18.90;99.90
37408;DHT22;24866;50.248;8.252;2022-09-09T15:10:59;19.00;99.90
37408;DHT22;24866;50.248;8.252;2022-09-09T15:13:29;18.90;99.90
37408;DHT22;24866;50.248;8.252;2022-09-09T15:16:05;18.70;99.90
37408;DHT22;24866;50.248;8.252;2022-09-09T15:18:35;18.60;99.90
37408;DHT22;24866;50.248;8.252;2022-09-09T15:21:09;18.30;99.90
37408;DHT22;24866;50.248;8.252;2022-09-09T15:23:39;18.30;99.90
37408;DHT22;24866;50.248;8.252;2022-09-09T15:26:09;18.10;99.90
37408;DHT22;24866;50.248;8.252;2022-09-09T15:28:40;18.00;99.90
37408;DHT22;24866;50.248;8.252;2022-09-09T15:31:15;18.00;99.90
37408;DHT22;24866;50.248;8.252;2022-09-09T15:33:50;17.90;99.90
37408;DHT22;24866;50.248;8.252;2022-09-09T15:36:21;17.90;99.90
37408;DHT22;24866;50.248;8.252;2022-09-09T15:38:52;17.90;99.90
37408;DHT22;24866;50.248;8.252;2022-09-09T15:41:22;17.80;99.90
37408;DHT22;24866;50.248;8.252;2022-09-09T15:43:54;17.80;99.90
37408;DHT22;24866;50.248;8.252;2022-09-09T15:46:29;17.70;99.90
37408;DHT22;24866;50.248;8.252;2022-09-09T15:49:05;17.80;99.90
37408;DHT22;24866;50.248;8.252;2022-09-09T15:51:35;17.70;99.90
37408;DHT22;24866;50.248;8.252;2022-09-09T15:54:06;17.70;99.90
37408;DHT22;24866;50.248;8.252;2022-09-09T15:56:36;17.80;99.90
37408;DHT22;24866;50.248;8.252;2022-09-09T15:59:06;17.70;99.90
37408;DHT22;24866;50.248;8.252;2022-09-09T16:01:38;17.70;99.90
37408;DHT22;24866;50.248;8.252;2022-09-09T16:04:10;17.60;99.90
37408;DHT22;24866;50.248;8.252;2022-09-09T16:06:40;17.60;99.90
37408;DHT22;24866;50.248;8.252;2022-09-09T16:09:11;17.50;99.90
37408;DHT22;24866;50.248;8.252;2022-09-09T16:11:40;17.50;99.90
37408;DHT22;24866;50.248;8.252;2022-09-09T16:14:10;17.30;99.90
37408;DHT22;24866;50.248;8.252;2022-09-09T16:16:42;17.30;99.90
37408;DHT22;24866;50.248;8.252;2022-09-09T16:19:13;17.30;99.90